createdAt,value
2023-05-15T00:00:44.451Z,9.45
2023-05-15T00:03:12.269Z,10.02
2023-05-15T00:05:39.667Z,8.90
2023-05-15T00:08:06.710Z,8.77
2023-05-15T00:10:33.772Z,12.98
2023-05-15T00:13:00.981Z,12.90
2023-05-15T00:15:28.070Z,15.27
2023-05-15T00:17:55.472Z,13.30
2023-05-15T00:20:22.690Z,15.27
2023-05-15T00:22:49.841Z,15.95
2023-05-15T00:25:19.386Z,15.23
2023-05-15T00:27:46.603Z,17.85
2023-05-15T00:30:14.474Z,12.25
2023-05-15T00:32:41.630Z,14.55
2023-05-15T00:35:08.869Z,13.30
2023-05-15T00:37:35.910Z,18.92
2023-05-15T00:40:02.949Z,16.60
2023-05-15T00:42:30.460Z,15.20
2023-05-15T00:44:57.490Z,15.10
2023-05-15T00:47:24.601Z,17.67
2023-05-15T00:49:51.729Z,14.02
2023-05-15T00:52:19.324Z,17.02
2023-05-15T00:54:46.436Z,18.02
2023-05-15T00:57:13.561Z,14.98
2023-05-15T00:59:40.682Z,13.82
2023-05-15T01:02:07.821Z,18.10
2023-05-15T01:04:34.849Z,13.43
2023-05-15T01:07:01.946Z,15.05
2023-05-15T01:09:29.032Z,15.18
2023-05-15T01:11:56.090Z,15.10
2023-05-15T01:14:23.246Z,16.15
2023-05-15T01:16:50.374Z,15.25
2023-05-15T01:19:17.579Z,15.00
2023-05-15T01:22:03.539Z,13.75
2023-05-15T01:24:42.934Z,17.80
2023-05-15T01:27:19.166Z,15.60
2023-05-15T01:29:56.810Z,16.20
2023-05-15T01:32:30.584Z,13.27
2023-05-15T01:34:58.721Z,15.93
2023-05-15T01:37:26.183Z,16.30
2023-05-15T01:39:54.404Z,16.05
2023-05-15T01:42:21.560Z,20.52
2023-05-15T01:44:52.466Z,17.23
2023-05-15T01:47:20.837Z,21.10
2023-05-15T01:49:47.873Z,23.95
2023-05-15T01:52:25.602Z,27.15
2023-05-15T01:54:52.688Z,20.15
2023-05-15T01:57:20.143Z,23.58
2023-05-15T01:59:47.233Z,23.08
2023-05-15T02:02:14.336Z,22.17
2023-05-15T02:04:41.498Z,22.83
2023-05-15T02:07:08.548Z,27.95
2023-05-15T02:09:35.961Z,23.20
2023-05-15T02:12:02.998Z,27.40
2023-05-15T02:14:30.471Z,24.63
2023-05-15T02:16:57.544Z,20.60
2023-05-15T02:19:24.648Z,25.52
2023-05-15T02:21:51.683Z,26.13
2023-05-15T02:24:18.786Z,23.30
2023-05-15T02:26:48.856Z,22.75
2023-05-15T02:29:34.471Z,23.10
2023-05-15T02:32:20.191Z,23.55
2023-05-15T02:34:55.168Z,26.90
2023-05-15T02:37:24.973Z,24.75
2023-05-15T02:39:54.347Z,26.92
2023-05-15T02:42:21.399Z,27.90
2023-05-15T02:44:48.565Z,20.42
2023-05-15T02:47:15.846Z,22.05
2023-05-15T02:49:42.925Z,24.85
2023-05-15T02:52:10.043Z,27.63
2023-05-15T02:54:37.069Z,22.15
2023-05-15T02:57:04.179Z,22.00
2023-05-15T02:59:31.180Z,25.02
2023-05-15T03:01:58.229Z,25.15
2023-05-15T03:04:25.322Z,26.65
2023-05-15T03:06:52.438Z,27.02
2023-05-15T03:09:19.529Z,26.95
2023-05-15T03:11:46.601Z,28.98
2023-05-15T03:14:13.770Z,31.65
2023-05-15T03:16:41.019Z,31.33
2023-05-15T03:19:08.116Z,27.83
2023-05-15T03:21:35.239Z,27.63
2023-05-15T03:24:02.330Z,26.42
2023-05-15T03:26:29.429Z,29.08
2023-05-15T03:28:56.577Z,27.88
2023-05-15T03:31:23.705Z,29.48
2023-05-15T03:33:51.401Z,25.73
2023-05-15T03:36:18.492Z,29.80
2023-05-15T03:38:45.597Z,26.17
2023-05-15T03:41:12.710Z,27.30
2023-05-15T03:43:39.769Z,23.20
2023-05-15T03:46:06.855Z,27.77
2023-05-15T03:48:33.957Z,25.67
2023-05-15T03:51:01.010Z,27.45
2023-05-15T03:53:28.079Z,28.27
2023-05-15T03:55:55.208Z,25.27
2023-05-15T03:58:22.287Z,26.45
2023-05-15T04:00:49.436Z,23.92
2023-05-15T04:03:16.660Z,30.88
2023-05-15T04:05:43.937Z,26.15
2023-05-15T04:08:12.439Z,35.42
2023-05-15T04:10:39.664Z,28.15
2023-05-15T04:13:06.732Z,26.85
2023-05-15T04:15:33.819Z,26.25
2023-05-15T04:18:01.198Z,28.88
2023-05-15T04:20:28.337Z,26.67
2023-05-15T04:22:55.420Z,29.42
2023-05-15T04:25:22.700Z,30.35
2023-05-15T04:27:49.878Z,28.20
2023-05-15T04:30:17.012Z,29.13
2023-05-15T04:32:44.437Z,28.33
2023-05-15T04:35:13.338Z,34.83
2023-05-15T04:37:40.728Z,29.73
2023-05-15T04:40:08.342Z,25.02
2023-05-15T04:42:37.139Z,23.85
2023-05-15T04:45:05.598Z,26.30
2023-05-15T04:47:32.810Z,28.00
2023-05-15T04:50:00.046Z,27.83
2023-05-15T04:52:27.100Z,26.50
2023-05-15T04:54:55.805Z,25.98
2023-05-15T04:57:23.288Z,25.20
2023-05-15T04:59:50.431Z,27.70
2023-05-15T05:02:20.971Z,25.63
2023-05-15T05:07:15.680Z,34.05
2023-05-15T05:09:42.715Z,30.52
2023-05-15T05:12:09.908Z,29.42
2023-05-15T05:14:36.986Z,29.17
2023-05-15T05:17:04.223Z,33.53
2023-05-15T05:19:31.332Z,34.50
2023-05-15T05:22:01.388Z,31.10
2023-05-15T05:24:28.589Z,31.73
2023-05-15T05:26:58.125Z,34.38
2023-05-15T05:29:26.001Z,34.72
2023-05-15T05:31:53.251Z,34.28
2023-05-15T05:34:20.576Z,33.17
2023-05-15T05:36:47.694Z,30.90
2023-05-15T05:39:15.388Z,30.13
2023-05-15T05:41:42.504Z,35.90
2023-05-15T05:44:09.588Z,33.80
2023-05-15T05:46:36.735Z,31.75
2023-05-15T05:49:03.812Z,31.60
2023-05-15T05:51:31.681Z,34.70
2023-05-15T05:53:58.878Z,29.00
2023-05-15T05:56:26.541Z,30.17
2023-05-15T05:58:53.720Z,30.20
2023-05-15T06:01:21.367Z,31.52
2023-05-15T06:03:48.589Z,29.50
2023-05-15T06:06:15.804Z,31.70
2023-05-15T06:08:42.878Z,26.45
2023-05-15T06:11:09.920Z,26.13
2023-05-15T06:13:37.667Z,23.60
2023-05-15T06:16:04.904Z,18.63
2023-05-15T06:18:32.053Z,22.42
2023-05-15T06:21:00.257Z,16.20
2023-05-15T06:23:27.531Z,15.65
2023-05-15T06:25:54.563Z,12.82
2023-05-15T06:28:21.629Z,14.85
2023-05-15T06:30:48.898Z,12.05
2023-05-15T06:33:16.057Z,10.95
2023-05-15T06:35:43.100Z,8.48
2023-05-15T06:38:10.316Z,10.23
2023-05-15T06:40:37.473Z,10.50
2023-05-15T06:43:04.562Z,8.95
2023-05-15T06:45:31.721Z,10.55
2023-05-15T06:48:01.585Z,9.27
2023-05-15T06:50:29.076Z,9.75
2023-05-15T06:52:56.188Z,11.25
2023-05-15T06:55:23.432Z,10.75
2023-05-15T06:57:50.891Z,10.18
2023-05-15T07:00:18.162Z,9.32
2023-05-15T07:02:45.289Z,7.60
2023-05-15T07:05:12.629Z,8.45
2023-05-15T07:07:39.833Z,8.98
2023-05-15T07:10:07.772Z,9.80
2023-05-15T07:12:35.142Z,8.05
2023-05-15T07:15:02.236Z,8.13
2023-05-15T07:17:29.456Z,7.15
2023-05-15T07:19:56.651Z,7.55
2023-05-15T07:22:23.734Z,4.40
2023-05-15T07:24:50.799Z,5.28
2023-05-15T07:27:17.818Z,9.30
2023-05-15T07:29:44.970Z,7.22
2023-05-15T07:32:12.123Z,4.53
2023-05-15T07:34:39.212Z,4.53
2023-05-15T07:37:06.251Z,5.15
2023-05-15T07:39:33.360Z,6.97
2023-05-15T07:42:00.785Z,6.38
2023-05-15T07:44:27.855Z,5.22
2023-05-15T07:46:56.605Z,4.68
2023-05-15T07:49:23.677Z,4.03
2023-05-15T07:51:50.790Z,3.90
2023-05-15T07:54:17.821Z,4.85
2023-05-15T07:56:44.894Z,5.50
2023-05-15T07:59:12.030Z,3.63
2023-05-15T08:01:39.148Z,4.95
2023-05-15T08:04:07.597Z,5.90
2023-05-15T08:06:34.838Z,8.02
2023-05-15T08:09:02.020Z,3.97
2023-05-15T08:11:29.096Z,4.30
2023-05-15T08:13:56.240Z,6.30
2023-05-15T08:16:23.454Z,5.03
2023-05-15T08:18:53.490Z,7.07
2023-05-15T08:21:20.669Z,4.10
2023-05-15T08:23:47.953Z,4.55
2023-05-15T08:26:15.062Z,5.78
2023-05-15T08:28:42.166Z,6.55
2023-05-15T08:31:09.298Z,5.70
2023-05-15T08:33:36.435Z,9.07
2023-05-15T08:36:03.580Z,5.22
2023-05-15T08:38:31.353Z,4.60
2023-05-15T08:40:58.876Z,4.65
2023-05-15T08:43:25.951Z,5.70
2023-05-15T08:45:53.297Z,3.53
2023-05-15T08:48:21.177Z,4.05
2023-05-15T08:50:48.477Z,7.30
2023-05-15T08:53:15.672Z,5.25
2023-05-15T08:55:42.869Z,3.55
2023-05-15T08:58:09.984Z,4.60
2023-05-15T09:00:37.528Z,6.97
2023-05-15T09:03:05.022Z,6.35
2023-05-15T09:05:32.198Z,5.30
2023-05-15T09:08:01.950Z,8.82
2023-05-15T09:10:29.108Z,3.50
2023-05-15T09:12:56.216Z,3.85
2023-05-15T09:15:25.410Z,2.53
2023-05-15T09:17:52.914Z,4.57
2023-05-15T09:20:26.999Z,4.15
2023-05-15T09:22:54.216Z,5.82
2023-05-15T09:25:40.649Z,4.43
2023-05-15T09:28:09.001Z,5.18
2023-05-15T09:30:39.337Z,3.40
2023-05-15T09:33:06.484Z,4.82
2023-05-15T09:35:37.358Z,2.97
2023-05-15T09:38:05.264Z,3.38
2023-05-15T09:40:32.716Z,3.40
2023-05-15T09:42:59.852Z,5.90
2023-05-15T09:45:29.669Z,6.35
2023-05-15T09:47:59.913Z,3.58
2023-05-15T09:50:32.862Z,3.58
2023-05-15T09:53:00.453Z,7.15
2023-05-15T09:55:27.656Z,9.27
2023-05-15T09:58:11.012Z,6.32
2023-05-15T10:00:48.214Z,5.15
2023-05-15T10:03:16.714Z,4.80
2023-05-15T10:05:44.456Z,4.70
2023-05-15T10:08:12.304Z,8.07
2023-05-15T10:10:39.441Z,5.47
2023-05-15T10:13:06.837Z,7.50
2023-05-15T10:15:33.920Z,8.57
2023-05-15T10:18:01.272Z,7.40
2023-05-15T10:20:28.479Z,7.32
2023-05-15T10:22:56.134Z,5.90
2023-05-15T10:25:42.074Z,8.23
2023-05-15T10:28:10.122Z,7.38
2023-05-15T10:30:37.420Z,7.82
2023-05-15T10:33:05.380Z,9.45
2023-05-15T10:35:32.540Z,9.75
2023-05-15T10:37:59.746Z,6.93
2023-05-15T10:40:27.703Z,5.63
2023-05-15T10:42:55.103Z,5.13
2023-05-15T10:45:22.228Z,3.75
2023-05-15T10:47:49.331Z,5.03
2023-05-15T10:50:16.442Z,3.25
2023-05-15T10:52:43.552Z,3.58
2023-05-15T10:55:11.225Z,5.38
2023-05-15T10:57:38.378Z,2.03
2023-05-15T11:00:08.424Z,2.13
2023-05-15T11:02:38.943Z,1.88
2023-05-15T11:05:07.089Z,8.93
2023-05-15T11:07:34.341Z,4.55
2023-05-15T11:10:02.054Z,7.75
2023-05-15T11:12:50.220Z,15.27
2023-05-15T11:15:17.358Z,43.40
2023-05-15T11:17:44.915Z,40.72
2023-05-15T11:20:11.975Z,10.40
2023-05-15T11:22:40.400Z,9.85
2023-05-15T11:25:12.371Z,12.38
2023-05-15T11:27:40.270Z,3.95
2023-05-15T11:30:08.139Z,6.18
2023-05-15T11:32:41.591Z,3.95
2023-05-15T11:35:12.384Z,5.45
2023-05-15T11:37:49.532Z,4.68
2023-05-15T11:40:24.476Z,3.88
2023-05-15T11:43:01.617Z,3.13
2023-05-15T11:45:29.640Z,3.13
2023-05-15T11:47:57.236Z,3.28
2023-05-15T11:50:24.949Z,3.50
2023-05-15T11:52:52.188Z,2.50
2023-05-15T11:55:19.383Z,4.30
2023-05-15T11:57:47.448Z,3.85
2023-05-15T12:00:14.693Z,3.45
2023-05-15T12:02:42.127Z,5.65
2023-05-15T12:05:09.496Z,4.68
2023-05-15T12:07:38.141Z,3.55
2023-05-15T12:10:05.467Z,3.10
2023-05-15T12:12:32.619Z,3.78
2023-05-15T12:14:59.778Z,2.67
2023-05-15T12:17:27.688Z,3.28
2023-05-15T12:19:54.962Z,4.20
2023-05-15T12:22:22.136Z,3.42
2023-05-15T12:24:49.307Z,3.33
2023-05-15T12:27:16.423Z,6.45
2023-05-15T12:29:43.529Z,6.10
2023-05-15T12:32:10.726Z,3.88
2023-05-15T12:34:37.996Z,5.07
2023-05-15T12:37:06.066Z,4.88
2023-05-15T12:39:33.132Z,4.95
2023-05-15T12:42:00.277Z,4.65
2023-05-15T12:44:27.398Z,3.85
2023-05-15T12:46:55.537Z,2.97
2023-05-15T12:49:23.022Z,4.82
2023-05-15T12:51:50.232Z,5.18
2023-05-15T12:54:20.737Z,3.70
2023-05-15T12:56:48.599Z,5.28
2023-05-15T12:59:16.017Z,4.50
2023-05-15T13:01:43.298Z,4.57
2023-05-15T13:04:10.989Z,7.38
2023-05-15T13:06:46.885Z,3.50
2023-05-15T13:09:15.054Z,5.90
2023-05-15T13:11:45.504Z,4.88
2023-05-15T13:14:17.501Z,7.88
2023-05-15T13:16:47.895Z,5.35
2023-05-15T13:21:43.867Z,5.72
2023-05-15T13:24:11.085Z,4.47
2023-05-15T13:26:38.325Z,6.10
2023-05-15T13:29:05.774Z,8.15
2023-05-15T13:31:32.990Z,2.60
2023-05-15T13:34:00.062Z,5.63
2023-05-15T13:36:27.137Z,5.68
2023-05-15T13:38:54.170Z,6.03
2023-05-15T13:41:21.238Z,4.18
2023-05-15T13:43:49.360Z,4.85
2023-05-15T13:46:16.758Z,3.75
2023-05-15T13:48:43.881Z,5.25
2023-05-15T13:51:11.067Z,3.15
2023-05-15T13:53:38.226Z,7.88
2023-05-15T13:56:05.614Z,7.13
2023-05-15T13:58:33.148Z,4.20
2023-05-15T14:01:00.336Z,2.80
2023-05-15T14:03:27.519Z,6.90
2023-05-15T14:05:54.642Z,4.32
2023-05-15T14:08:21.785Z,5.03
2023-05-15T14:10:48.892Z,4.18
2023-05-15T14:13:16.601Z,5.20
2023-05-15T14:15:43.752Z,3.67
2023-05-15T14:18:10.903Z,4.35
2023-05-15T14:20:38.066Z,4.70
2023-05-15T14:23:05.264Z,4.03
2023-05-15T14:25:32.407Z,8.18
2023-05-15T14:27:59.620Z,3.60
2023-05-15T14:30:26.999Z,3.75
2023-05-15T14:32:54.323Z,5.10
2023-05-15T14:35:21.467Z,6.00
2023-05-15T14:37:48.558Z,5.97
2023-05-15T14:40:15.952Z,5.90
2023-05-15T14:42:43.128Z,5.75
2023-05-15T14:45:10.493Z,6.63
2023-05-15T14:47:37.882Z,7.57
2023-05-15T14:50:05.386Z,5.80
2023-05-15T14:52:32.657Z,6.80
2023-05-15T14:55:08.628Z,6.45
2023-05-15T14:57:37.219Z,8.55
2023-05-15T15:00:06.312Z,9.65
2023-05-15T15:02:33.678Z,8.85
2023-05-15T15:05:00.835Z,10.27
2023-05-15T15:07:28.735Z,8.70
2023-05-15T15:09:55.800Z,10.40
2023-05-15T15:12:23.082Z,8.52
2023-05-15T15:14:50.229Z,9.68
2023-05-15T15:17:17.309Z,9.05
2023-05-15T15:19:44.385Z,9.60
2023-05-15T15:22:11.595Z,12.98
2023-05-15T15:24:38.990Z,10.05
2023-05-15T15:27:06.875Z,8.55
2023-05-15T15:29:33.982Z,10.20
2023-05-15T15:32:01.047Z,11.18
2023-05-15T15:34:28.153Z,12.18
2023-05-15T15:36:55.202Z,8.93
2023-05-15T15:39:22.294Z,8.00
2023-05-15T15:41:49.406Z,7.80
2023-05-15T15:44:16.588Z,12.57
2023-05-15T15:46:43.638Z,11.77
2023-05-15T15:49:10.738Z,10.50
2023-05-15T15:51:37.820Z,9.40
2023-05-15T15:54:05.181Z,8.82
2023-05-15T15:56:32.534Z,7.53
2023-05-15T15:58:59.712Z,7.32
2023-05-15T16:01:26.824Z,9.48
2023-05-15T16:03:53.907Z,8.63
2023-05-15T16:06:20.998Z,10.30
2023-05-15T16:08:48.095Z,8.98
2023-05-15T16:11:16.332Z,10.18
2023-05-15T16:13:43.598Z,9.63
2023-05-15T16:16:10.961Z,9.13
2023-05-15T16:18:38.071Z,13.60
2023-05-15T16:21:05.211Z,6.50
2023-05-15T16:23:35.934Z,8.52
2023-05-15T16:26:03.806Z,7.75
2023-05-15T16:28:31.558Z,9.63
2023-05-15T16:31:01.725Z,7.63
2023-05-15T16:33:29.433Z,7.47
2023-05-15T16:35:56.695Z,5.75
2023-05-15T16:38:24.684Z,7.22
2023-05-15T16:40:51.899Z,7.63
2023-05-15T16:43:19.068Z,6.45
2023-05-15T16:45:46.164Z,9.43
2023-05-15T16:48:13.327Z,7.50
2023-05-15T16:50:40.489Z,8.65
2023-05-15T16:53:08.128Z,9.35
2023-05-15T16:55:35.307Z,7.60
2023-05-15T16:58:02.391Z,8.20
2023-05-15T17:00:29.512Z,9.10
2023-05-15T17:02:56.644Z,8.27
2023-05-15T17:05:23.789Z,9.52
2023-05-15T17:07:50.889Z,8.63
2023-05-15T17:10:17.966Z,12.60
2023-05-15T17:12:45.242Z,7.88
2023-05-15T17:15:13.112Z,6.85
2023-05-15T17:17:40.368Z,15.45
2023-05-15T17:20:07.837Z,9.55
2023-05-15T17:22:34.889Z,10.60
2023-05-15T17:25:01.985Z,11.15
2023-05-15T17:27:29.121Z,6.82
2023-05-15T17:29:56.303Z,10.70
2023-05-15T17:32:23.493Z,13.07
2023-05-15T17:34:51.431Z,11.98
2023-05-15T17:37:18.625Z,9.70
2023-05-15T17:39:45.793Z,8.10
2023-05-15T17:42:12.924Z,10.43
2023-05-15T17:44:40.060Z,9.48
2023-05-15T17:47:07.728Z,10.45
2023-05-15T17:49:34.757Z,10.52
2023-05-15T17:52:01.932Z,12.30
2023-05-15T17:54:29.045Z,11.88
2023-05-15T17:56:56.163Z,7.63
2023-05-15T17:59:23.222Z,11.88
2023-05-15T18:01:50.322Z,11.27
2023-05-15T18:04:17.482Z,10.00
2023-05-15T18:06:44.601Z,12.48
2023-05-15T18:09:11.870Z,11.40
2023-05-15T18:11:38.938Z,13.30
2023-05-15T18:14:06.390Z,12.95
2023-05-15T18:16:33.462Z,11.48
2023-05-15T18:19:00.648Z,10.18
2023-05-15T18:21:27.811Z,9.80
2023-05-15T18:23:54.850Z,12.93
2023-05-15T18:26:22.180Z,12.48
2023-05-15T18:28:49.656Z,9.48
2023-05-15T18:31:18.359Z,10.70
2023-05-15T18:33:45.740Z,9.48
2023-05-15T18:36:12.862Z,13.02
2023-05-15T18:38:39.927Z,9.18
2023-05-15T18:41:07.050Z,11.32
2023-05-15T18:43:34.188Z,11.45
2023-05-15T18:46:01.288Z,10.88
2023-05-15T18:48:28.328Z,14.00
2023-05-15T18:50:55.794Z,8.95
2023-05-15T18:53:22.848Z,11.10
2023-05-15T18:55:49.900Z,10.77
2023-05-15T18:58:16.996Z,12.10
2023-05-15T19:00:44.142Z,11.60
2023-05-15T19:03:11.446Z,13.02
2023-05-15T19:05:38.596Z,12.27
2023-05-15T19:08:05.918Z,11.45
2023-05-15T19:10:33.123Z,11.15
2023-05-15T19:13:00.248Z,24.40
2023-05-15T19:15:27.346Z,15.60
2023-05-15T19:17:54.414Z,10.57
2023-05-15T19:20:21.434Z,12.70
2023-05-15T19:22:48.605Z,12.52
2023-05-15T19:25:15.734Z,8.90
2023-05-15T19:27:42.887Z,9.98
2023-05-15T19:30:10.307Z,15.05
2023-05-15T19:32:37.691Z,12.13
2023-05-15T19:35:05.273Z,11.15
2023-05-15T19:37:32.406Z,11.10
2023-05-15T19:39:59.714Z,10.75
2023-05-15T19:42:26.983Z,9.82
2023-05-15T19:44:54.130Z,15.50
2023-05-15T19:47:21.380Z,16.27
2023-05-15T19:49:48.482Z,10.32
2023-05-15T19:52:16.337Z,13.95
2023-05-15T19:54:44.178Z,12.18
2023-05-15T19:57:11.210Z,12.55
2023-05-15T19:59:38.431Z,12.85
2023-05-15T20:02:09.151Z,14.90
2023-05-15T20:04:36.426Z,14.52
2023-05-15T20:07:04.197Z,15.00
2023-05-15T20:09:31.334Z,15.07
2023-05-15T20:11:58.449Z,15.13
2023-05-15T20:14:25.547Z,11.73
2023-05-15T20:16:52.726Z,13.23
2023-05-15T20:19:21.941Z,16.08
2023-05-15T20:21:49.888Z,17.33
2023-05-15T20:24:18.035Z,15.48
2023-05-15T20:26:45.326Z,17.50
2023-05-15T20:29:12.449Z,17.88
2023-05-15T20:31:40.466Z,16.70
2023-05-15T20:34:08.235Z,15.27
2023-05-15T20:36:38.779Z,16.60
2023-05-15T20:39:07.194Z,19.48
2023-05-15T20:41:34.632Z,16.60
2023-05-15T20:44:01.938Z,17.90
2023-05-15T20:46:30.253Z,15.18
2023-05-15T20:48:57.707Z,16.55
2023-05-15T20:51:25.047Z,14.85
2023-05-15T20:53:52.108Z,13.85
2023-05-15T20:56:19.261Z,16.70
2023-05-15T20:58:46.402Z,18.98
2023-05-15T21:01:13.595Z,16.35
2023-05-15T21:03:40.874Z,14.18
2023-05-15T21:06:08.164Z,17.65
2023-05-15T21:08:35.278Z,18.55
2023-05-15T21:11:02.413Z,17.67
2023-05-15T21:13:29.585Z,16.95
2023-05-15T21:15:56.802Z,16.48
2023-05-15T21:18:23.912Z,19.10
2023-05-15T21:20:51.622Z,16.63
2023-05-15T21:23:20.913Z,15.68
2023-05-15T21:25:48.084Z,17.00
2023-05-15T21:28:15.655Z,18.85
2023-05-15T21:30:42.845Z,18.85
2023-05-15T21:33:10.054Z,15.38
2023-05-15T21:35:37.972Z,18.45
2023-05-15T21:38:05.147Z,19.17
2023-05-15T21:40:32.220Z,18.88
2023-05-15T21:42:59.286Z,17.35
2023-05-15T21:45:26.343Z,19.42
2023-05-15T21:47:53.505Z,20.17
2023-05-15T21:50:20.600Z,17.83
2023-05-15T21:52:50.789Z,19.35
2023-05-15T21:55:18.124Z,20.17
2023-05-15T21:57:45.396Z,20.10
2023-05-15T22:00:12.596Z,21.88
2023-05-15T22:02:39.857Z,22.17
2023-05-15T22:05:07.209Z,21.73
2023-05-15T22:07:34.275Z,21.48
2023-05-15T22:10:03.062Z,23.95
2023-05-15T22:12:31.652Z,20.20
2023-05-15T22:14:59.838Z,23.67
2023-05-15T22:17:28.923Z,25.50
2023-05-15T22:20:06.491Z,24.33
2023-05-15T22:22:34.439Z,23.35
2023-05-15T22:25:01.597Z,26.55
2023-05-15T22:27:28.630Z,27.08
2023-05-15T22:29:55.812Z,27.45
2023-05-15T22:32:23.133Z,25.85
2023-05-15T22:34:50.302Z,31.20
2023-05-15T22:37:17.370Z,29.75
2023-05-15T22:39:44.444Z,28.02
2023-05-15T22:42:11.471Z,23.77
2023-05-15T22:44:38.642Z,29.40
2023-05-15T22:47:06.006Z,27.88
2023-05-15T22:49:33.663Z,30.02
2023-05-15T22:52:00.917Z,27.45
2023-05-15T22:54:28.045Z,29.42
2023-05-15T22:56:55.282Z,31.17
2023-05-15T22:59:22.356Z,29.70
2023-05-15T23:01:49.683Z,32.03
2023-05-15T23:04:17.417Z,27.83
2023-05-15T23:06:44.610Z,27.55
2023-05-15T23:09:11.835Z,30.58
2023-05-15T23:11:39.184Z,30.33
2023-05-15T23:14:08.160Z,26.10
2023-05-15T23:16:35.571Z,29.67
2023-05-15T23:19:02.801Z,26.63
2023-05-15T23:21:29.913Z,28.23
2023-05-15T23:23:57.031Z,33.10
2023-05-15T23:26:24.056Z,32.22
2023-05-15T23:28:51.337Z,32.55
2023-05-15T23:31:18.511Z,31.23
2023-05-15T23:33:45.687Z,29.42
2023-05-15T23:36:12.779Z,36.35
2023-05-15T23:38:40.352Z,33.88
2023-05-15T23:41:07.849Z,31.30
2023-05-15T23:43:34.953Z,33.05
2023-05-15T23:46:02.106Z,58.42
2023-05-15T23:48:31.635Z,40.22
2023-05-15T23:50:58.742Z,38.97
2023-05-15T23:53:25.939Z,37.50
2023-05-15T23:55:53.028Z,42.53
2023-05-15T23:58:20.175Z,43.53
